18 | 08 | 2019

Daten Vortag

Wetterdaten von 10m Höhe gemessen, Station 2

Datum / Zeit Intervall min Luftfeuchte % Temperatur °C absolut Luftdruck hPa Wind m/s Windbö m/s Richtung Relative Luftdruck hPa Taupunkt °C Windchill °C Niederschlag mm
17-08-2019 00:21 5 90 13.7 1013.3 2.5 6.1 S 1013.7 12.1 13.7 0.0
17-08-2019 00:26 5 90 13.7 1013.3 2.5 6.1 SE 1013.7 12.1 13.7 0.0
17-08-2019 00:31 5 90 13.7 1013.1 2.5 6.1 E 1013.5 12.1 13.7 0.0
17-08-2019 00:36 5 90 13.7 1013.2 1.1 3.6 SE 1013.6 12.1 13.7 0.0
17-08-2019 00:41 5 90 13.6 1013.1 2.5 5.0 SE 1013.5 12.0 13.6 0.0
17-08-2019 00:46 5 91 13.6 1013.0 2.5 3.6 S 1013.4 12.2 13.6 0.0
17-08-2019 00:51 5 91 13.5 1012.9 2.5 6.1 S 1013.3 12.1 13.5 0.0
17-08-2019 00:56 5 91 13.5 1013.1 1.1 3.6 S 1013.5 12.1 13.5 0.0
17-08-2019 01:01 5 91 13.5 1013.2 2.5 5.0 SE 1013.6 12.1 13.5 0.0
17-08-2019 01:06 5 91 13.6 1012.7 3.6 9.7 SE 1013.1 12.2 13.6 0.0
17-08-2019 01:11 5 91 13.6 1012.8 2.5 6.1 SE 1013.2 12.2 13.6 0.0
17-08-2019 01:16 5 91 13.6 1012.7 2.5 5.0 E 1013.1 12.2 13.6 0.0
17-08-2019 01:21 5 90 13.6 1012.6 2.5 5.0 SE 1013.0 12.0 13.6 0.0
17-08-2019 01:26 5 90 13.6 1012.6 2.5 3.6 SE 1013.0 12.0 13.6 0.0
17-08-2019 01:31 5 90 13.5 1012.7 0.0 1.1 SE 1013.1 11.9 13.5 0.0
17-08-2019 01:36 5 91 13.5 1012.6 0.0 1.1 SE 1013.0 12.1 13.5 0.0
17-08-2019 01:41 5 91 13.3 1012.6 0.0 2.5 SE 1013.0 11.9 13.3 0.0
17-08-2019 01:46 5 91 13.2 1012.8 0.0 2.5 S 1013.2 11.8 13.2 0.0
17-08-2019 01:51 5 92 13.1 1012.7 0.0 1.1 S 1013.1 11.8 13.1 0.0
17-08-2019 01:56 5 91 13.1 1012.4 0.0 0.0 SE 1012.8 11.7 13.1 0.0
17-08-2019 02:01 5 91 13.2 1012.6 1.1 3.6 SE 1013.0 11.8 13.2 0.0
17-08-2019 02:06 5 91 13.3 1012.4 0.0 1.1 S 1012.8 11.9 13.3 0.0
17-08-2019 02:11 5 91 13.3 1012.1 1.1 3.6 SE 1012.5 11.9 13.3 0.0
17-08-2019 02:16 5 91 13.3 1012.2 0.0 0.0 S 1012.6 11.9 13.3 0.0
17-08-2019 02:21 5 91 13.3 1012.4 0.0 2.5 S 1012.8 11.9 13.3 0.0
17-08-2019 02:26 5 91 13.3 1012.2 0.0 1.1 S 1012.6 11.9 13.3 0.0
17-08-2019 02:31 5 91 13.4 1012.1 1.1 2.5 SE 1012.5 12.0 13.4 0.0
17-08-2019 02:36 5 89 13.7 1012.0 2.5 6.1 SE 1012.4 11.9 13.7 0.0
17-08-2019 02:41 5 89 14.1 1012.0 1.1 5.0 SE 1012.4 12.3 14.1 0.0
17-08-2019 02:46 5 88 14.2 1011.8 2.5 5.0 SE 1012.2 12.3 14.2 0.0
17-08-2019 02:51 5 88 14.3 1011.9 3.6 7.2 SE 1012.3 12.4 14.3 0.0
17-08-2019 02:56 5 89 14.3 1011.6 5.0 8.6 SE 1012.0 12.5 14.3 0.0
17-08-2019 03:01 5 89 14.3 1012.0 5.0 8.6 SE 1012.4 12.5 14.3 0.0
17-08-2019 03:06 5 89 14.3 1011.5 3.6 6.1 SE 1011.9 12.5 14.3 0.0
17-08-2019 03:11 5 89 14.3 1011.7 5.0 7.2 SE 1012.1 12.5 14.3 0.0
17-08-2019 03:16 5 88 14.4 1011.4 2.5 6.1 SE 1011.8 12.5 14.4 0.0
17-08-2019 03:21 5 88 14.4 1011.4 3.6 6.1 S 1011.8 12.5 14.4 0.0
17-08-2019 03:26 5 88 14.5 1011.5 2.5 3.6 SE 1011.9 12.6 14.5 0.0
17-08-2019 03:31 5 88 14.5 1011.2 5.0 7.2 SE 1011.6 12.6 14.5 0.0
17-08-2019 03:36 5 88 14.5 1011.3 3.6 7.2 SE 1011.7 12.6 14.5 0.0
17-08-2019 03:41 5 88 14.5 1011.2 2.5 5.0 SE 1011.6 12.6 14.5 0.0
17-08-2019 03:46 5 87 14.6 1011.2 6.1 8.6 E 1011.6 12.5 14.6 0.0
17-08-2019 03:51 5 86 14.8 1011.0 6.1 12.2 SE 1011.4 12.5 14.8 0.0
17-08-2019 03:56 5 86 14.9 1011.1 7.2 12.2 S 1011.5 12.6 14.0 0.0
17-08-2019 04:01 5 86 14.9 1011.0 8.6 12.2 S 1011.4 12.6 13.3 0.0
17-08-2019 04:06 5 86 14.9 1011.0 5.0 9.7 SE 1011.4 12.6 14.9 0.0
17-08-2019 04:11 5 85 14.9 1010.8 5.0 8.6 SE 1011.2 12.4 14.9 0.0
17-08-2019 04:16 5 85 15.0 1010.7 6.1 9.7 SE 1011.1 12.5 15.0 0.0
17-08-2019 04:21 5 84 15.1 1010.9 9.7 13.3 SE 1011.3 12.4 13.1 0.0
17-08-2019 04:26 5 83 15.1 1010.6 8.6 12.2 S 1011.0 12.3 13.5 0.0
17-08-2019 04:31 5 82 15.3 1010.5 9.7 14.8 E 1010.9 12.3 13.3 0.0
17-08-2019 04:36 5 82 15.4 1010.4 3.6 9.7 E 1010.8 12.4 15.4 0.0
17-08-2019 04:41 5 81 15.4 1010.4 7.2 12.2 E 1010.8 12.2 14.5 0.0
17-08-2019 04:46 5 81 15.4 1010.3 8.6 12.2 SE 1010.7 12.2 13.9 0.0
17-08-2019 04:51 5 81 15.4 1010.3 5.0 13.3 SE 1010.7 12.2 15.4 0.0
17-08-2019 04:56 5 81 15.4 1010.0 8.6 13.3 SE 1010.4 12.2 13.9 0.0
17-08-2019 05:01 5 81 15.4 1010.1 7.2 13.3 SE 1010.5 12.2 14.5 0.0
17-08-2019 05:06 5 81 15.4 1010.2 7.2 12.2 SE 1010.6 12.2 14.5 0.0
17-08-2019 05:11 5 80 15.4 1010.1 7.2 14.8 E 1010.5 12.0 14.5 0.0
17-08-2019 05:16 5 80 15.4 1010.0 5.0 8.6 SE 1010.4 12.0 15.4 0.0
17-08-2019 05:21 5 80 15.5 1010.3 8.6 13.3 S 1010.7 12.1 14.0 0.0
17-08-2019 05:26 5 80 15.4 1010.1 6.1 11.2 SE 1010.5 12.0 15.4 0.0
17-08-2019 05:31 5 79 15.4 1010.4 7.2 11.2 SE 1010.8 11.8 14.5 0.0
17-08-2019 05:36 5 79 15.4 1010.3 8.6 13.3 S 1010.7 11.8 13.9 0.0
17-08-2019 05:41 5 79 15.4 1010.1 6.1 9.7 S 1010.5 11.8 15.4 0.0
17-08-2019 05:46 5 79 15.5 1010.2 6.1 11.2 SE 1010.6 11.9 15.5 0.0
17-08-2019 05:51 5 80 15.4 1010.0 5.0 8.6 S 1010.4 12.0 15.4 0.0
17-08-2019 05:56 5 80 15.3 1010.2 2.5 5.0 S 1010.6 11.9 15.3 0.0
17-08-2019 06:01 5 81 15.2 1010.2 2.5 5.0 S 1010.6 12.0 15.2 0.0
17-08-2019 06:06 5 80 15.1 1010.3 5.0 8.6 S 1010.7 11.7 15.1 0.0
17-08-2019 06:11 5 81 15.1 1010.0 1.1 3.6 N 1010.4 11.9 15.1 0.0
17-08-2019 06:16 5 83 15.1 1009.9 0.0 2.5 N 1010.3 12.3 15.1 0.0
17-08-2019 06:21 5 83 14.9 1009.9 0.0 3.6 E 1010.3 12.1 14.9 0.0
17-08-2019 06:26 5 82 14.9 1009.8 5.0 7.2 SE 1010.2 11.9 14.9 0.0
17-08-2019 06:31 5 82 14.9 1009.6 1.1 3.6 E 1010.0 11.9 14.9 0.0
17-08-2019 06:36 5 82 14.9 1010.0 0.0 0.0 E 1010.4 11.9 14.9 0.0
17-08-2019 06:41 5 80 14.9 1010.0 2.5 6.1 S 1010.4 11.5 14.9 0.0
17-08-2019 06:46 5 80 15.1 1010.0 2.5 5.0 S 1010.4 11.7 15.1 0.0
17-08-2019 06:51 5 79 15.3 1010.1 3.6 6.1 S 1010.5 11.7 15.3 0.0
17-08-2019 06:56 5 77 15.4 1009.7 6.1 8.6 SW 1010.1 11.4 15.4 0.0
17-08-2019 07:01 5 78 15.4 1009.6 5.0 7.2 S 1010.0 11.6 15.4 0.0
17-08-2019 07:06 5 79 15.4 1009.5 5.0 8.6 S 1009.9 11.8 15.4 0.0
17-08-2019 07:11 5 80 15.3 1009.8 7.2 12.2 SE 1010.2 11.9 14.4 0.0
17-08-2019 07:16 5 81 15.2 1009.7 7.2 12.2 S 1010.1 12.0 14.3 0.0
17-08-2019 07:21 5 79 15.1 1009.6 9.7 17.3 SE 1010.0 11.5 13.1 0.0
17-08-2019 07:26 5 79 15.3 1009.5 6.1 11.2 E 1009.9 11.7 15.3 0.0
17-08-2019 07:31 5 80 15.2 1009.7 7.2 11.2 SE 1010.1 11.8 14.3 0.0
17-08-2019 07:36 5 80 15.2 1009.6 7.2 11.2 S 1010.0 11.8 14.3 0.0
17-08-2019 07:41 5 81 15.2 1009.8 7.2 11.2 S 1010.2 12.0 14.3 0.0
17-08-2019 07:46 5 82 15.1 1009.7 6.1 9.7 SE 1010.1 12.1 15.1 0.0
17-08-2019 07:51 5 82 15.1 1009.9 8.6 11.2 SE 1010.3 12.1 13.5 0.0
17-08-2019 07:56 5 83 15.1 1009.6 5.0 8.6 S 1010.0 12.3 15.1 0.0
17-08-2019 08:01 5 84 15.0 1009.4 6.1 9.7 SE 1009.8 12.3 15.0 0.0
17-08-2019 08:06 5 84 15.0 1009.7 2.5 5.0 E 1010.1 12.3 15.0 0.0
17-08-2019 08:11 5 84 15.0 1009.7 7.2 12.2 SE 1010.1 12.3 14.1 0.3
17-08-2019 08:16 5 85 15.0 1009.7 7.2 11.2 SE 1010.1 12.5 14.1 0.3
17-08-2019 08:21 5 84 15.0 1009.5 9.7 13.3 SE 1009.9 12.3 13.0 0.3
17-08-2019 08:26 5 85 15.0 1009.6 8.6 11.2 SE 1010.0 12.5 13.4 0.3
17-08-2019 08:31 5 85 15.0 1009.4 6.1 8.6 S 1009.8 12.5 15.0 0.3
17-08-2019 08:36 5 85 15.1 1009.6 5.0 12.2 S 1010.0 12.6 15.1 0.3
17-08-2019 08:41 5 85 15.1 1009.9 7.2 11.2 S 1010.3 12.6 14.2 0.3
17-08-2019 08:46 5 84 15.1 1009.6 11.2 17.3 SE 1010.0 12.4 12.5 0.3
17-08-2019 08:51 5 83 15.2 1009.8 8.6 14.8 S 1010.2 12.4 13.7 0.3
17-08-2019 08:56 5 84 15.3 1009.8 5.0 9.7 S 1010.2 12.6 15.3 0.6
17-08-2019 09:01 5 85 15.2 1009.6 3.6 8.6 S 1010.0 12.7 15.2 0.6
17-08-2019 09:06 5 84 15.2 1009.8 8.6 12.2 SE 1010.2 12.5 13.7 0.6
17-08-2019 09:11 5 84 15.3 1009.6 6.1 11.2 SE 1010.0 12.6 15.3 0.3
17-08-2019 09:16 5 83 15.3 1009.5 9.7 14.8 W 1009.9 12.4 13.3 0.3
17-08-2019 09:21 5 82 15.5 1009.3 14.8 23.4 SE 1009.7 12.5 11.9 0.3
17-08-2019 09:26 5 82 15.6 1009.4 13.3 20.9 SE 1009.8 12.6 12.4 0.3
17-08-2019 09:31 5 83 15.7 1009.1 12.2 18.4 SE 1009.5 12.8 12.9 0.3
17-08-2019 09:36 5 83 15.7 1009.2 6.1 12.2 SE 1009.6 12.8 15.7 0.3
17-08-2019 09:41 5 82 15.8 1009.2 9.7 13.3 SW 1009.6 12.8 13.9 0.3
17-08-2019 09:46 5 82 16.1 1009.1 7.2 9.7 SE 1009.5 13.0 15.3 0.3
17-08-2019 09:51 5 83 16.1 1009.2 8.6 18.4 S 1009.6 13.2 14.6 0.3
17-08-2019 09:56 5 84 16.0 1009.2 9.7 14.8 SE 1009.6 13.3 14.1 0.0
17-08-2019 10:01 5 83 16.1 1009.2 3.6 6.1 SE 1009.6 13.2 16.1 0.0
17-08-2019 10:06 5 83 16.2 1008.9 8.6 15.8 S 1009.3 13.3 14.7 0.0
17-08-2019 10:11 5 83 16.4 1008.9 9.7 14.8 S 1009.3 13.5 14.5 0.0
17-08-2019 10:16 5 82 16.5 1008.8 8.6 15.8 SE 1009.2 13.4 15.1 0.0
17-08-2019 10:21 5 81 16.6 1008.8 9.7 14.8 S 1009.2 13.3 14.8 0.0
17-08-2019 10:26 5 81 16.6 1008.7 12.2 19.4 SE 1009.1 13.3 13.9 0.0
17-08-2019 10:31 5 81 16.9 1008.7 8.6 15.8 SE 1009.1 13.6 15.5 0.0
17-08-2019 10:36 5 81 17.0 1008.8 6.1 11.2 S 1009.2 13.7 17.0 0.0
17-08-2019 10:41 5 79 17.0 1008.8 17.3 23.4 SE 1009.2 13.4 13.1 0.0
17-08-2019 10:46 5 81 17.0 1008.9 11.2 17.3 SE 1009.3 13.7 14.7 0.0
17-08-2019 10:51 5 81 16.9 1008.8 9.7 14.8 SE 1009.2 13.6 15.1 0.0
17-08-2019 10:56 5 82 16.9 1008.9 5.0 11.2 S 1009.3 13.8 16.9 0.0
17-08-2019 11:01 5 82 16.9 1008.6 8.6 12.2 SE 1009.0 13.8 15.5 0.0
17-08-2019 11:06 5 82 16.9 1008.6 6.1 12.2 SE 1009.0 13.8 16.9 0.0
17-08-2019 11:11 5 80 17.2 1008.9 9.7 15.8 SE 1009.3 13.7 15.4 0.0
17-08-2019 11:16 5 81 17.3 1008.4 7.2 11.2 S 1008.8 14.0 16.5 0.0
17-08-2019 11:21 5 79 17.5 1008.7 13.3 19.4 S 1009.1 13.8 14.6 0.0
17-08-2019 11:26 5 80 17.6 1008.5 11.2 15.8 SE 1008.9 14.1 15.4 0.0
17-08-2019 11:31 5 79 17.7 1008.7 7.2 9.7 S 1009.1 14.0 17.0 0.0
17-08-2019 11:36 5 78 17.9 1008.7 7.2 15.8 S 1009.1 14.0 17.2 0.0
17-08-2019 11:41 5 77 18.0 1008.6 9.7 14.8 SE 1009.0 13.9 16.3 0.0
17-08-2019 11:46 5 76 18.2 1008.3 11.2 19.4 S 1008.7 13.9 16.1 0.0
17-08-2019 11:51 5 76 18.4 1008.4 8.6 12.2 SE 1008.8 14.1 17.1 0.0
17-08-2019 11:56 5 75 18.9 1008.4 12.2 17.3 SE 1008.8 14.4 16.6 0.0
17-08-2019 12:01 5 75 19.2 1008.4 9.7 15.8 S 1008.8 14.7 17.6 0.0
17-08-2019 12:06 5 73 19.2 1008.4 12.2 19.4 S 1008.8 14.3 16.9 0.0
17-08-2019 12:11 5 73 19.3 1008.4 12.2 20.9 S 1008.8 14.4 17.0 0.0
17-08-2019 12:16 5 73 19.4 1008.2 14.8 20.9 S 1008.6 14.5 16.6 0.0
17-08-2019 12:21 5 73 19.5 1008.1 11.2 18.4 SE 1008.5 14.6 17.6 0.0
17-08-2019 12:26 5 73 19.7 1007.9 9.7 17.3 SE 1008.3 14.7 18.2 0.0
17-08-2019 12:31 5 72 19.9 1008.0 11.2 24.5 SE 1008.4 14.7 18.0 0.0
17-08-2019 12:36 5 73 20.0 1007.9 11.2 17.3 SE 1008.3 15.0 18.1 0.0
17-08-2019 16:07 5 66 21.5 1007.6 22.0 31.7 SW 1013.7 14.9 18.0 0.0
17-08-2019 16:12 5 67 21.4 1008.0 19.4 27.0 SW 1014.1 15.0 18.2 0.0
17-08-2019 16:17 5 68 21.4 1008.2 14.8 22.0 SW 1014.3 15.3 19.0 0.0
17-08-2019 16:22 5 67 21.5 1008.1 13.3 18.4 W 1014.2 15.1 19.4 0.0
17-08-2019 16:27 5 67 21.5 1008.2 18.4 25.6 SW 1014.3 15.1 18.5 0.0
17-08-2019 16:32 5 68 21.5 1008.2 12.2 20.9 W 1014.3 15.4 19.6 0.0
17-08-2019 16:37 5 67 21.8 1008.0 19.4 27.0 W 1014.1 15.4 18.7 0.0
17-08-2019 16:42 5 68 21.8 1008.1 11.2 13.3 SW 1014.2 15.7 20.2 0.0
17-08-2019 16:47 5 68 21.8 1007.9 9.7 17.3 SW 1014.0 15.7 20.5 0.0
17-08-2019 16:52 5 66 21.8 1008.2 20.9 31.7 SW 1014.3 15.2 18.5 0.0
17-08-2019 16:57 5 67 21.7 1008.0 11.2 17.3 SW 1014.1 15.3 20.1 0.0
17-08-2019 17:02 5 66 21.8 1007.9 17.3 29.5 SW 1014.0 15.2 19.0 0.0
17-08-2019 17:07 5 65 22.1 1007.6 15.8 19.4 W 1013.7 15.2 19.6 0.0
17-08-2019 17:12 5 65 22.3 1007.3 9.7 15.8 SW 1013.4 15.4 21.1 0.0
17-08-2019 17:17 5 63 22.6 1007.6 13.3 18.4 SW 1013.7 15.2 20.7 0.0
17-08-2019 17:22 5 64 22.5 1007.7 17.3 23.4 W 1013.8 15.4 19.9 0.0
17-08-2019 17:27 5 65 22.4 1007.7 14.8 18.4 SW 1013.8 15.5 20.2 0.0
17-08-2019 17:32 5 64 22.3 1007.2 13.3 20.9 S 1013.3 15.2 20.3 0.0
17-08-2019 17:37 5 66 22.3 1007.3 11.2 24.5 S 1013.4 15.7 20.8 0.0
17-08-2019 17:42 5 67 21.9 1007.2 7.2 11.2 S 1013.3 15.5 21.4 0.0
17-08-2019 17:47 5 66 21.9 1007.7 12.2 22.0 SW 1013.8 15.3 20.1 0.0
17-08-2019 17:52 5 66 22.0 1007.5 9.7 19.4 SW 1013.6 15.4 20.8 0.0
17-08-2019 17:57 5 67 22.0 1007.5 5.0 8.6 S 1013.6 15.6 22.0 0.0
17-08-2019 18:02 5 66 21.9 1007.5 14.8 19.4 W 1013.6 15.3 19.6 0.0
17-08-2019 18:07 5 67 21.8 1007.3 8.6 13.3 W 1013.4 15.4 20.8 0.0
17-08-2019 18:12 5 67 21.8 1007.5 9.7 12.2 SW 1013.6 15.4 20.5 0.0
17-08-2019 18:17 5 66 21.8 1007.3 7.2 12.2 W 1013.4 15.2 21.3 0.0
17-08-2019 18:22 5 68 21.8 1007.4 7.2 11.2 SW 1013.5 15.7 21.3 0.0
17-08-2019 18:27 5 67 21.8 1007.3 7.2 11.2 SW 1013.4 15.4 21.3 0.0
17-08-2019 18:32 5 67 21.8 1007.2 3.6 7.2 S 1013.3 15.4 21.8 0.0
17-08-2019 18:37 5 68 21.8 1007.4 6.1 9.7 SW 1013.5 15.7 21.8 0.0
17-08-2019 18:42 5 68 21.9 1007.4 2.5 3.6 SW 1013.5 15.8 21.9 0.0
17-08-2019 18:47 5 68 21.8 1007.3 1.1 3.6 S 1013.4 15.7 21.8 0.0
17-08-2019 18:52 5 68 21.8 1007.5 2.5 5.0 S 1013.6 15.7 21.8 0.0
17-08-2019 18:57 5 69 21.7 1007.3 2.5 3.6 S 1013.4 15.8 21.7 0.0
17-08-2019 19:02 5 70 21.7 1007.6 1.1 2.5 S 1013.7 16.0 21.7 0.0
17-08-2019 19:07 5 70 21.7 1007.4 1.1 2.5 S 1013.5 16.0 21.7 0.0
17-08-2019 19:12 5 70 21.7 1007.4 1.1 2.5 S 1013.5 16.0 21.7 0.0
17-08-2019 19:17 5 70 21.7 1007.3 3.6 5.0 S 1013.4 16.0 21.7 0.0
17-08-2019 19:22 5 71 21.7 1007.5 2.5 6.1 S 1013.6 16.2 21.7 0.0
17-08-2019 19:27 5 71 21.7 1007.7 2.5 5.0 S 1013.8 16.2 21.7 0.0
17-08-2019 19:32 5 70 21.7 1007.3 1.1 3.6 S 1013.4 16.0 21.7 0.0
17-08-2019 19:37 5 71 21.6 1007.6 2.5 3.6 W 1013.7 16.1 21.6 0.0
17-08-2019 19:42 5 71 21.6 1007.6 2.5 5.0 W 1013.7 16.1 21.6 0.0
17-08-2019 19:47 5 69 21.6 1007.4 5.0 9.7 S 1013.5 15.7 21.6 0.0
17-08-2019 19:52 5 70 21.7 1007.3 3.6 6.1 W 1013.4 16.0 21.7 0.0
17-08-2019 19:57 5 69 21.7 1007.4 6.1 7.2 W 1013.5 15.8 21.7 0.0
17-08-2019 20:02 5 69 21.7 1007.3 6.1 9.7 S 1013.4 15.8 21.7 0.0
17-08-2019 20:07 5 70 21.7 1007.4 3.6 6.1 W 1013.5 16.0 21.7 0.0
17-08-2019 20:12 5 70 21.5 1007.3 5.0 9.7 W 1013.4 15.8 21.5 0.0
17-08-2019 20:17 5 71 21.5 1007.4 2.5 3.6 W 1013.5 16.0 21.5 0.0
17-08-2019 20:22 5 70 21.5 1007.4 12.2 14.8 W 1013.5 15.8 19.6 0.0
17-08-2019 20:27 5 72 21.5 1007.4 5.0 11.2 W 1013.5 16.3 21.5 0.0
17-08-2019 20:32 5 72 21.4 1007.4 6.1 9.7 W 1013.5 16.2 21.4 0.0
17-08-2019 20:37 5 73 21.3 1007.4 5.0 7.2 W 1013.5 16.3 21.3 0.0
17-08-2019 20:42 5 73 21.2 1007.4 5.0 9.7 W 1013.5 16.2 21.2 0.0
17-08-2019 20:47 5 73 21.1 1007.5 6.1 9.7 W 1013.6 16.1 21.1 0.0
17-08-2019 20:52 5 74 21.0 1007.5 5.0 7.2 W 1013.6 16.2 21.0 0.0
17-08-2019 20:57 5 76 20.9 1007.6 3.6 7.2 W 1013.7 16.5 20.9 0.0
17-08-2019 21:02 5 78 20.5 1007.5 5.0 6.1 SW 1013.6 16.6 20.5 0.0
17-08-2019 21:07 5 78 20.3 1007.5 3.6 6.1 SW 1013.6 16.4 20.3 0.0
17-08-2019 21:12 5 79 20.3 1007.7 5.0 8.6 SW 1013.8 16.6 20.3 0.0
17-08-2019 21:17 5 80 20.2 1007.6 6.1 11.2 S 1013.7 16.7 20.2 0.0
17-08-2019 21:22 5 81 20.0 1007.4 6.1 7.2 SW 1013.5 16.7 20.0 0.0
17-08-2019 21:27 5 81 19.9 1007.5 5.0 6.1 W 1013.6 16.6 19.9 0.0
17-08-2019 21:32 5 81 19.8 1007.5 2.5 5.0 W 1013.6 16.5 19.8 0.0
17-08-2019 21:37 5 81 19.8 1007.7 3.6 6.1 SW 1013.8 16.5 19.8 0.0
17-08-2019 21:42 5 82 19.7 1007.6 3.6 5.0 S 1013.7 16.6 19.7 0.0
17-08-2019 21:47 5 82 19.7 1007.6 2.5 5.0 S 1013.7 16.6 19.7 0.0
17-08-2019 21:52 5 82 19.6 1007.5 5.0 8.6 SW 1013.6 16.5 19.6 0.0
17-08-2019 21:57 5 82 19.6 1007.7 6.1 11.2 SW 1013.8 16.5 19.6 0.0
17-08-2019 22:02 5 83 19.5 1007.7 5.0 7.2 SW 1013.8 16.6 19.5 0.0
17-08-2019 22:07 5 83 19.5 1007.4 5.0 7.2 S 1013.5 16.6 19.5 0.0
17-08-2019 22:12 5 83 19.4 1007.6 3.6 7.2 SW 1013.7 16.5 19.4 0.0
17-08-2019 22:17 5 84 19.3 1007.6 3.6 7.2 SW 1013.7 16.6 19.3 0.0
17-08-2019 22:22 5 84 19.3 1007.4 3.6 5.0 S 1013.5 16.6 19.3 0.0
17-08-2019 22:27 5 85 19.2 1007.3 2.5 5.0 E 1013.4 16.6 19.2 0.0
17-08-2019 22:32 5 86 19.0 1007.4 1.1 2.5 S 1013.5 16.6 19.0 0.0
17-08-2019 22:37 5 87 18.9 1007.6 1.1 3.6 W 1013.7 16.7 18.9 0.0
17-08-2019 22:42 5 87 18.8 1007.6 0.0 1.1 S 1013.7 16.6 18.8 0.0
17-08-2019 22:47 5 87 18.8 1007.6 0.0 2.5 S 1013.7 16.6 18.8 0.0
17-08-2019 22:52 5 88 18.8 1007.6 2.5 5.0 S 1013.7 16.8 18.8 0.0
17-08-2019 22:57 5 88 18.6 1007.5 1.1 2.5 S 1013.6 16.6 18.6 0.0
17-08-2019 23:02 5 89 18.5 1007.5 3.6 5.0 E 1013.6 16.7 18.5 0.0
17-08-2019 23:07 5 89 18.4 1007.5 2.5 5.0 SE 1013.6 16.6 18.4 0.0
17-08-2019 23:12 5 90 18.3 1007.6 2.5 5.0 S 1013.7 16.7 18.3 0.0
17-08-2019 23:17 5 90 18.2 1007.3 5.0 6.1 SE 1013.4 16.6 18.2 0.0
17-08-2019 23:22 5 90 18.2 1007.4 3.6 6.1 SE 1013.5 16.6 18.2 0.0
17-08-2019 23:27 5 91 18.1 1007.5 2.5 5.0 SE 1013.6 16.6 18.1 0.0
17-08-2019 23:32 5 91 18.0 1007.2 2.5 5.0 SE 1013.3 16.5 18.0 0.0
17-08-2019 23:37 5 92 17.9 1007.2 3.6 6.1 S 1013.3 16.6 17.9 0.0
17-08-2019 23:42 5 92 17.8 1007.4 1.1 3.6 SE 1013.5 16.5 17.8 0.0
17-08-2019 23:47 5 92 17.8 1007.1 5.0 6.1 SE 1013.2 16.5 17.8 0.0
17-08-2019 23:52 5 92 17.8 1007.0 5.0 6.1 SE 1013.1 16.5 17.8 0.0
17-08-2019 23:57 5 93 17.7 1007.2 3.6 7.2 SE 1013.3 16.6 17.7 0.0

                                                                                Tabelle: 08 : 00 UHR

STATIONHÖHELUFTD.TEMP.T-MinT-MaxU%RR1RR12SSSDDFFFXWetter+WolkenBöen
UFS TW Ems 0 ------ --- --- --- --- ---- --- --- -- --- --- --- ---
UFS Deutsche Bucht 0 ------ --- --- --- --- ---- --- --- -- --- --- --- ---
Helgoland 4 1004.3 16.4 16.2 19.1 90 1.3 6 --- -- --- --- Regen ---
List/Sylt 26 1003.4 16.5 16.3 18.4 93 1.4 7 0 S 50 64 Regen Windböen
Schleswig 43 1006.4 14.8 14.6 18.4 92 0.6 3 0 S 13 26 leichter Regen ---
Leuchtturm Kiel 5 1007.1 15.5 15.5 19.2 84 ---- --- --- S 36 48 --- ---
Kiel 27 1007.2 14.8 14.7 18.9 89 0.1 1 --- S 10 22 leichter Regen ---
Fehmarn 3 1008.3 15.7 15.4 18.5 87 1.0 2 --- S 16 24 leichter Regen ---
Arkona 42 1010.6 18.0 14.6 18.0 75 0.0 0 --- S 26 38 leichter Regen ---
Norderney 11 1004.5 16.2 15.8 19.8 92 0.3 6 --- S 27 47 leichter Regen ---
Leuchtt. Alte Weser 32 1004.8 16.6 16.4 19.8 90 ---- --- --- S 43 --- --- ---
Cuxhaven 5 1006.2 16.0 15.8 19.9 92 0.6 1 --- S 13 31 Regen ---
Hamburg-Flh. 11 1008.4 15.3 15.0 19.4 87 0.3 1 0 SO 17 24 leichter Regen ---
Schwerin 59 1009.7 15.1 15.1 19.0 78 0.0 0 --- S 9 18 leichter Regen ---
Rostock 4 1009.5 16.1 16.0 18.9 76 0.1 0 --- S 10 21 leichter Regen ---
Greifswald 2 1010.9 16.0 14.2 18.3 76 0.0 0 0 SO 10 23 bedeckt ---
Emden 0 1005.0 16.4 15.7 20.0 89 0.6 4 --- S 14 28 Regen ---
Bremen-Flh. 5 1007.0 16.5 15.9 20.0 84 0.0 1 0 SO 13 20 Regen ---
Lüchow 17 1010.2 15.8 14.2 21.4 79 0.1 0 --- SO 6 9 Regen ---
Marnitz 81 1010.3 16.1 13.1 18.7 65 0.0 0 --- S 10 20 Regen ---
Waren 70 1010.7 16.8 15.6 18.5 73 0.0 0 --- S 14 22 Regen ---
Neuruppin 38 1011.7 15.1 12.1 19.3 74 0.0 0 --- S 4 12 --- ---
Angermünde 56 1012.4 14.8 13.1 20.3 70 0.0 0 0 S 13 19 --- ---
Münster/Osnabr.-Flh. 48 1007.7 17.5 16.0 21.4 78 0.0 0 0 S 10 18 bedeckt ---
Hannover-Flh. 59 1008.5 17.6 16.8 20.4 72 0.0 0 0 SO 13 21 Regen ---
Magdeburg 76 1011.4 16.6 14.3 20.7 75 0.1 0 --- SW 10 17 Regen ---
Potsdam 81 1012.3 15.6 14.6 19.4 67 0.0 0 0 S 17 26 bedeckt ---
Berlin-Tegel 37 1012.4 16.5 14.3 20.2 63 0.0 0 0 S 13 21 stark bewölkt ---
Berlin-Tempelhof 48 1012.6 15.3 14.6 21.0 68 0.0 0 --- S 9 15 --- ---
Berlin-Dahlem 51 1012.3 15.1 11.9 19.7 --- ---- 0 0 S 14 --- bedeckt ---
Lindenberg 91 1013.3 15.0 13.4 19.3 77 0.0 0 0 S 7 16 stark bewölkt ---
Düsseldorf-Flh. 45 1008.6 19.2 17.0 21.8 69 0.0 1 0 S 17 26 Regen ---
Essen 150 1008.5 18.4 15.8 20.3 70 0.0 1 --- SW 12 33 leichter Regen ---
Kahler Asten 839 ------ 12.8 12.2 14.4 82 0.0 1 --- S 29 42 --- ---
Bad Lippspringe 157 1008.5 18.5 15.6 21.4 66 0.0 0 --- S 10 24 --- ---
Fritzlar 174 1010.4 16.9 12.8 20.8 74 ---- 0 0 S 14 --- stark bewölkt ---
Brocken 1142 ------ 10.3 9.4 11.6 88 ---- 1 0 SW 66 82 leichter Regen Sturmböen
Leipzig-Flh. 142 1012.3 16.7 14.3 21.4 67 0.0 0 0 S 18 24 Regen ---
Dresden-Flh. 227 1014.0 16.4 13.1 20.1 67 0.0 0 0 S 15 21 bedeckt ---
Cottbus 69 1013.5 16.8 12.7 20.0 70 0.0 0 --- S 10 20 --- ---
Görlitz 238 1014.9 16.1 11.8 18.1 73 0.0 0 --- S 17 24 --- ---
Aachen 231 1008.7 18.4 16.4 19.8 68 0.0 0 --- SW 24 36 --- ---
Nürburg 485 1010.1 16.4 15.7 17.6 71 0.0 0 --- SW 14 32 --- ---
Köln/Bonn-Flh. 92 1009.8 18.3 16.6 21.2 72 0.0 0 0 S 14 23 stark bewölkt ---
Gießen/Wettenberg 203 1011.0 15.9 13.9 20.6 85 0.0 0 --- W 4 6 --- ---
Wasserkuppe 921 ------ 13.6 11.3 14.1 78 0.0 0 --- S 33 44 leichter Regen ---
Meiningen 450 1013.5 13.4 11.0 19.5 81 0.0 0 --- S 5 17 Regen ---
Erfurt 316 1011.4 17.6 12.9 20.2 62 0.0 0 0 S 18 27 leichter Regen ---
Gera 311 1013.1 15.3 12.2 20.6 72 0.0 0 --- -- --- 21 --- ---
Fichtelberg 1213 ------ 11.1 10.1 11.2 75 ---- --- --- SW 37 49 --- ---
Trier 265 1012.1 16.4 15.9 20.5 81 0.3 0 --- SW 14 24 leichter Regen ---
Hahn-Flh. 497 1011.4 16.3 15.0 18.3 72 0.0 0 --- SW 19 30 --- ---
Frankfurt/M-Flh. 112 1012.0 16.6 14.9 22.6 86 0.0 0 0 S 9 27 Regen ---
OF-Wetterpark 119 1012.0 16.4 15.1 22.5 85 0.1 0 --- SO 5 12 Regen ---
Würzburg 268 1013.9 15.1 13.5 21.2 80 0.0 0 --- S 10 17 --- ---
Bamberg 239 1013.7 15.0 9.6 19.8 81 0.0 0 --- S 4 9 --- ---
Hof 567 1014.0 14.4 10.9 18.4 73 0.0 0 --- S 11 17 --- ---
Weiden 438 1015.7 13.6 10.7 18.5 82 0.0 0 --- S 3 10 --- ---
Saarbrücken-Flh. 320 1012.8 16.7 16.7 21.0 71 0.0 0 0 SW 15 27 leichter Regen ---
Karlsruhe-Rheinst. 116 1013.1 16.3 14.2 23.2 84 0.0 0 --- SO 4 9 --- ---
Mannheim 96 1012.5 18.7 15.1 23.3 69 0.0 0 --- S 14 21 --- ---
Stuttgart-Flh. 371 1014.4 14.7 13.3 21.5 90 0.0 0 --- NO 4 5 Regen ---
Öhringen 276 1013.4 17.6 14.8 22.4 72 0.0 0 --- SO 4 7 Regen ---
Nürnberg-Flh. 314 1014.3 15.7 11.5 20.4 77 0.0 0 0 SO 12 18 stark bewölkt ---
Regensburg 366 1015.8 14.5 11.9 20.5 79 0.0 0 --- -- 13 22 --- ---
Straubing 351 1016.3 12.9 10.2 20.3 91 0.0 0 --- O 8 12 --- ---
Großer Arber 1436 ------ 10.4 8.9 10.5 75 0.0 0 --- S 19 23 --- ---
Lahr 155 1013.6 17.4 14.5 23.6 79 0.0 0 --- SW 6 8 Regen ---
Freudenstadt 797 ------ 16.0 13.3 18.0 69 0.0 0 --- W 11 18 --- ---
Stötten 734 1014.3 15.6 14.2 18.4 71 0.0 0 --- SW 11 17 Regen ---
Augsburg 462 1015.7 14.2 9.8 20.5 85 0.0 0 --- SO 6 12 --- ---
München-Flh. 444 1015.8 13.9 8.1 20.4 80 0.0 0 0 S 7 11 heiter ---
Fürstenzell 476 1016.9 13.3 10.7 18.8 83 0.0 0 --- SO 3 8 --- ---
Feldberg/Schw. 1486 ------ 12.4 11.2 13.2 70 0.0 0 0 SW 44 65 --- Sturmböen
Konstanz 443 1015.3 15.9 13.9 22.1 87 0.0 0 --- - 0 6 --- ---
Kempten 705 1016.0 13.1 10.8 17.9 76 0.0 0 --- SO 8 15 --- ---
Oberstdorf 806 ------ 11.2 6.8 14.9 92 0.0 0 --- S 4 12 --- ---
Zugspitze 2960 ------ 3.7 2.1 3.9 50 ---- --- 0 W 26 57 --- Windböen
Hohenpeißenberg 977 ------ 16.1 13.3 16.4 53 0.0 0 --- SW 19 25 --- ---

                                                                                              Tabelle: 20 : 00 UHR   

STATIONHÖHELUFTD.TEMP.T-MinT-MaxU%RR1RR12SSSDDFFFXWetter+WolkenBöen
UFS TW Ems 0 ------ --- --- --- --- ---- --- --- -- --- --- --- ---
UFS Deutsche Bucht 26 ------ --- --- --- --- ---- --- --- -- --- --- --- ---
Helgoland 4 1005.2 18.6 16.5 20.3 81 0.0 0 --- -- --- ---   ---
List/Sylt 26 1004.8 18.0 15.4 19.6 74 0.0 5 0 SW 19 36 wolkenlos ---
Schleswig 43 1005.9 16.8 14.8 19.5 91 0.4 3 0 S 12 26 Regenschauer ---
Leuchtturm Kiel 5 1006.0 19.1 15.2 19.2 85 ---- --- --- S 30 41 --- ---
Kiel 27 1006.3 18.8 14.8 19.9 86 0.0 1 --- S 9 27 --- ---
Fehmarn 3 1006.7 18.6 15.6 21.0 90 0.0 3 --- SW 12 31 Regen ---
Arkona 42 1008.0 18.5 17.2 20.7 86 0.0 1 --- SW 11 21 --- ---
Norderney 11 1005.0 18.4 16.1 20.8 85 3.1 4 --- SW 9 13 leichter Regen ---
Leuchtt. Alte Weser 32 1005.2 18.7 16.4 20.0 81 ---- --- --- SW 4 --- --- ---
Cuxhaven 5 1005.7 20.5 15.8 21.6 78 0.0 2 --- S 17 40 --- ---
Hamburg-Flh 11 1007.1 19.7 15.4 20.5 79 0.0 1 0 SW 18 31 heiter ---
Schwerin 59 1007.5 20.8 15.0 21.8 71 0.0 0 --- SW 11 24 Regen ---
Rostock 4 1007.4 20.3 15.8 22.5 77 0.1 1 --- S 6 17 Regen ---
Greifswald 2 1008.1 20.9 16.0 23.9 67 0.0 0 0 S 3 14 stark bewölkt ---
Emden 0 1005.3 18.5 16.4 22.1 90 0.0 0 --- S 15 36 Regen ---
Bremen-Flh. 5 1007.3 19.7 16.5 22.2 84 0.0 1 0 S 13 30 stark bewölkt ---
Lüchow 17 1008.0 22.2 15.8 25.4 61 0.0 0 --- SW 5 19 --- ---
Marnitz 81 1007.8 22.2 16.2 23.7 61 0.0 0 --- W 9 19 --- ---
Waren 70 1007.6 21.5 16.7 23.6 71 0.0 0 --- S 3 10 --- ---
Neuruppin 38 1007.9 23.2 14.9 27.4 51 0.0 0 --- S 7 18 --- ---
Angermünde 56 1008.2 24.3 14.9 26.4 44 0.0 0 0 SW 9 18 --- ---
Münster/Osnabr.-Flh. 48 1007.9 18.8 17.3 20.9 93 0.4 1 0 S 17 36 leichter Regen ---
Hannover-Flh. 59 1008.0 21.0 17.7 23.5 70 0.0 0 0 W 6 16 stark bewölkt ---
Magdeburg 76 1009.0 22.9 16.7 26.9 54 0.0 0 --- SW 14 33 --- ---
Potsdam 81 1008.8 23.4 15.6 27.9 46 0.0 0 0 SW 17 33 bewölkt ---
Berlin-Tegel 37 1008.6 24.1 16.3 28.1 44 0.0 0 0 SW 16 33 bewölkt ---
Berlin-Tempelhof 48 1008.9 24.4 15.3 27.8 42 0.0 0 --- SW 13 36 --- ---
Berlin-Dahlem 51 1008.6 23.6 15.1 27.7 --- ---- 0 0 SW 14 --- bewölkt ---
Lindenberg 91 1009.4 23.2 15.0 27.8 47 0.0 0 0 SW 15 31 bewölkt ---
Düsseldorf-Flh. 45 1008.4 20.3 17.5 22.2 79 0.0 0 0 S 14 31 bedeckt ---
Essen 150 1008.4 17.6 15.9 20.5 98 0.1 3 --- S 13 24 Regen ---
Kahler Asten 839 ------ 13.9 12.8 16.7 95 0.2 1 --- SW 27 41 leichter Regen ---
Bad Lippspringe 157 1008.5 20.8 18.5 22.8 68 0.0 0 --- SW 11 28 leichter Regen ---
Fritzlar 174 1009.7 20.1 17.0 21.6 68 ---- 0 0 S 22 --- stark bewölkt ---
Brocken 1142 ------ 11.7 10.2 15.0 97 ---- 0 0 SW 54 67 bedeckt Sturmböen
Leipzig-Flh. 142 1009.9 22.6 16.7 25.8 52 0.0 0 0 SW 22 33 bedeckt ---
Dresden-Flh. 227 1010.6 22.3 16.4 24.4 51 0.0 0 0 S 14 22 bedeckt ---
Cottbus 69 1009.8 23.9 16.9 28.5 46 0.0 0 --- S 11 32 --- ---
Görlitz 238 1011.2 21.7 16.1 26.2 47 0.0 0 --- S 19 34   ---
Aachen 231 1008.5 18.8 16.9 19.8 85 0.0 0 --- SW 17 37 Regen ---
Nürburg 485 1010.1 15.7 15.1 18.1 93 0.2 0 --- SW 15 31 leichter Regen ---
Köln/Bonn-Flh. 92 1009.6 18.6 18.3 21.6 87 0.0 0 0 S 17 28 Regen ---
Gießen/Wettenberg 203 1011.0 17.6 15.9 20.7 86 0.3 0 --- SW 14 37 Regen ---
Wasserkuppe 921 ------ 13.4 13.2 16.1 90 0.0 0 --- SW 34 49 leichter Regen ---
Meiningen 450 1011.8 18.0 13.1 19.6 69 0.0 0 --- S 12 32 --- ---
Erfurt 316 1010.1 20.5 17.4 22.5 59 0.0 0 0 SW 21 38 stark bewölkt ---
Gera 311 1010.5 21.3 15.3 22.8 54 0.0 0 --- SW 19 33 --- ---
Fichtelberg 1213 ------ 13.2 10.9 15.4 78 ---- --- --- SW 44 53 --- Windböen
Trier 265 1011.5 16.8 15.3 19.1 93 0.0 5 --- S 18 31 Regen ---
Hahn-Flh. 497 1011.2 15.6 14.2 18.0 94 0.0 2 --- SW 16 32 --- ---
Frankfurt/M-Flh. 112 1012.3 18.3 16.6 22.4 93 0.5 3 0 SW 13 28 leichter Regen ---
OF-Wetterpark 119 1012.1 18.4 16.4 22.9 88 0.4 1 --- S 5 15 leichter Regen ---
Würzburg 268 1013.0 18.6 15.1 22.2 80 0.1 0 --- W 16 36 leichter Regen ---
Bamberg 239 1012.7 18.9 14.9 22.6 84 0.0 0 --- S 3 15 leichter Regen ---
Hof 567 1011.5 19.2 14.5 20.7 58 0.0 0 --- SW 13 24 --- ---
Weiden 438 1012.7 19.0 13.5 21.9 79 0.0 0 --- S 4 9 leichter Regen ---
Saarbrücken-Flh. 320 1012.4 16.6 15.9 21.1 94 0.1 4 0 S 9 13 Regen ---
Karlsruhe-Rheinst. 116 1013.2 18.0 16.3 25.5 90 0.6 1 --- S 11 23 leichter Regen ---
Mannheim 96 1012.9 18.3 17.5 23.1 87 0.4 2 --- S 13 27 leichter Regen ---
Stuttgart-Flh. 371 1013.9 17.1 14.6 23.4 87 0.6 1 --- W 14 30 Regen ---
Öhringen 276 1013.1 19.4 17.6 25.2 77 0.1 0 --- SW 9 26 leichter Regen ---
Nürnberg-Flh. 314 1012.4 20.5 15.8 23.1 63 0.0 0 0 SW 4 9 leichter Regen ---
Regensburg 366 1012.7 21.3 14.3 24.6 67 0.0 0 --- -- 6 16 Regen ---
Straubing 351 1012.8 21.0 12.8 23.5 71 0.0 0 --- SO 10 15 leichter Regen ---
Großer Arber 1436 ------ 12.7 10.2 15.7 81 0.0 0 --- SW 19 36 Niederschlag ---
Lahr 155 1012.7 18.1 17.4 24.0 89 0.1 1 --- NO 9 21 Regen ---
Freudenstadt 797 ------ 14.5 14.5 19.3 93 0.8 2 --- W 6 11 leichter Regen ---
Stötten 734 1013.8 15.7 15.6 21.4 80 0.1 0 --- W 20 43 Regen ---
Augsburg 462 1013.5 20.3 14.4 24.8 60 0.0 0 --- W 11 35 Regen ---
München-Flh. 444 1012.9 23.0 13.7 25.5 48 0.0 0 0 W 12 21 bedeckt ---
Fürstenzell 476 1012.9 20.7 13.1 22.9 66 0.0 0 --- SO 9 13 Regen ---
Feldberg/Schw. 1486 ------ 14.5 11.8 14.9 61 0.0 0 0 SW 47 72 Regen Sturmböen
Konstanz 443 1012.9 20.9 15.8 23.5 71 0.0 0 --- NO 3 4 --- ---
Kempten 705 1013.4 18.2 13.1 22.9 81 0.0 0 --- O 4 13 Regen ---
Oberstdorf 806 ------ 18.0 11.2 24.4 82 0.0 0 --- NW 4 17 Regen ---
Zugspitze 2960 ------ 5.5 3.7 7.2 72 ---- --- --- W 17 45 Niederschlag ---
Hohenpeißenberg 977 ------ 18.4 16.1 23.0 59 0.0 0 --- W 10 21 Regen ---

 

  • Wetterzustand
  • Windrichtung und -geschwindigkeit
  • Luftdruck
  • relative Luftfeuchtigkeit
  • Sichtweite
  • Gesamtbedeckungsgrad
  • Niederschlag
  • Sonnenscheindauer

 Höhe:     m über NN
Luftd.:   auf Meereshöhe reduzierter Luftdruck in hPa
TEMP.:   Lufttemperatur in Grad Celsius
T-MIN:   Minimumtemperatur der Luft in 2m Höhe in Grad Celsius, von 18 UTC Vortag bis 06 UTC heute
T-MAX:  Maximumtemperatur der Luft in 2m Höhe in Grad Celsius, von 18 UTC Vortag bis 06 UTC heute
RR1:     Niederschlagsmenge, einstündig, mm ist gleich Liter pro
RR12:   Niederschlagsmenge, 12 stündig, 18 UTC Vortag bis 06 UTC heute in mm ist gleich Liter pro
SSS:     Gesamtschneehöhe
DD:      Windrichtung
FF:       Windgeschwindigkeit letztes 10-Minutenmittel in km/h
FX:       höchste Windspitze während der letzten Stunde in km/h
---:      Wert nicht vorhanden

 

2009-2019

Unwetterwarnungen

 

  Radarbild           

aktueller Radarfilm Deutschland

  Europa-Meteoalarm